Terminal Aerodrome Forecast
Issued by NWS

Home | Current Version | Previous Version | Text Only | Print | Product List | Glossary On
Versions: 1 2 3 4 5 6 7 8 9 10 11 12
000
FTUS42 KTBW 212324
TAFPIE
TAF
KPIE 212324Z 2200/2224 04005KT P6SM FEW040 FEW250
     FM220300 08007KT P6SM BKN250
     FM220600 09006KT 5SM BR SCT015 BKN250
     FM220900 09004KT 3SM BR SCT004 BKN015
      TEMPO 2209/2213 BKN004
     FM221400 14008KT 6SM BR SCT005 OVC015
     FM221600 17010KT P6SM SCT050 BKN250=

USA.gov is the U.S. government's official web portal to all federal, state and local government web resources and services.